createdAt,value
2022-10-28T00:00:17.215Z,16.10
2022-10-28T00:02:44.054Z,16.10
2022-10-28T00:05:10.854Z,16.10
2022-10-28T00:07:37.784Z,16.10
2022-10-28T00:10:04.827Z,16.10
2022-10-28T00:12:34.745Z,16.10
2022-10-28T00:15:01.498Z,16.10
2022-10-28T00:17:28.337Z,16.10
2022-10-28T00:19:55.433Z,16.10
2022-10-28T00:22:22.615Z,16.10
2022-10-28T00:24:49.443Z,16.10
2022-10-28T00:27:16.204Z,16.10
2022-10-28T00:29:42.987Z,16.10
2022-10-28T00:32:09.740Z,16.10
2022-10-28T00:34:43.893Z,16.10
2022-10-28T00:37:11.326Z,16.00
2022-10-28T00:39:38.041Z,16.00
2022-10-28T00:42:04.908Z,16.00
2022-10-28T00:44:50.936Z,16.00
2022-10-28T00:47:36.502Z,15.90
2022-10-28T00:50:16.287Z,15.90
2022-10-28T00:52:44.441Z,15.90
2022-10-28T00:55:11.846Z,15.90
2022-10-28T00:57:41.718Z,15.90
2022-10-28T01:00:08.848Z,15.90
2022-10-28T01:02:38.008Z,15.80
2022-10-28T01:05:04.957Z,15.80
2022-10-28T01:07:31.824Z,15.80
2022-10-28T01:09:58.599Z,15.80
2022-10-28T01:12:25.332Z,15.80
2022-10-28T01:15:07.479Z,15.80
2022-10-28T01:17:40.173Z,15.80
2022-10-28T01:20:06.875Z,15.70
2022-10-28T01:22:52.842Z,15.80
2022-10-28T01:25:44.485Z,15.80
2022-10-28T01:28:14.527Z,15.70
2022-10-28T01:31:00.014Z,15.70
2022-10-28T01:33:28.623Z,15.70
2022-10-28T01:35:58.177Z,15.70
2022-10-28T01:38:34.964Z,15.70
2022-10-28T01:41:34.127Z,15.70
2022-10-28T01:44:06.900Z,15.70
2022-10-28T01:46:36.869Z,15.60
2022-10-28T01:49:17.516Z,15.60
2022-10-28T01:51:55.109Z,15.60
2022-10-28T01:54:24.310Z,15.60
2022-10-28T01:56:53.198Z,15.60
2022-10-28T01:59:22.095Z,15.60
2022-10-28T02:01:48.942Z,15.60
2022-10-28T02:04:15.889Z,15.60
2022-10-28T02:06:43.826Z,15.60
2022-10-28T02:09:10.554Z,15.60
2022-10-28T02:11:56.244Z,15.60
2022-10-28T02:14:45.245Z,15.60
2022-10-28T02:17:12.290Z,15.60
2022-10-28T02:19:45.278Z,15.60
2022-10-28T02:22:18.714Z,15.50
2022-10-28T02:24:54.624Z,15.60
2022-10-28T02:27:34.202Z,15.50
2022-10-28T02:30:03.953Z,15.50
2022-10-28T02:32:32.375Z,15.60
2022-10-28T02:35:01.288Z,15.50
2022-10-28T02:37:29.847Z,15.50
2022-10-28T02:40:02.369Z,15.50
2022-10-28T02:42:31.979Z,15.50
2022-10-28T02:45:06.217Z,15.50
2022-10-28T02:47:35.254Z,15.50
2022-10-28T02:50:04.835Z,15.50
2022-10-28T02:52:32.528Z,15.50
2022-10-28T02:55:00.825Z,15.40
2022-10-28T02:57:40.059Z,15.40
2022-10-28T03:00:08.946Z,15.40
2022-10-28T03:02:36.062Z,15.40
2022-10-28T03:05:04.357Z,15.40
2022-10-28T03:07:31.118Z,15.30
2022-10-28T03:09:57.843Z,15.30
2022-10-28T03:12:24.641Z,15.30
2022-10-28T03:14:51.354Z,15.30
2022-10-28T03:17:18.147Z,15.30
2022-10-28T03:19:45.085Z,15.40
2022-10-28T03:22:11.785Z,15.40
2022-10-28T03:24:38.555Z,15.40
2022-10-28T03:27:05.278Z,15.50
2022-10-28T03:29:32.057Z,15.50
2022-10-28T03:31:58.839Z,15.40
2022-10-28T03:34:25.683Z,15.40
2022-10-28T03:36:52.481Z,15.50
2022-10-28T03:39:19.319Z,15.50
2022-10-28T03:41:46.053Z,15.50
2022-10-28T03:44:12.885Z,15.50
2022-10-28T03:46:40.496Z,15.50
2022-10-28T03:49:07.383Z,15.50
2022-10-28T03:51:34.255Z,15.50
2022-10-28T03:54:01.648Z,15.50
2022-10-28T03:56:28.491Z,15.50
2022-10-28T03:58:55.239Z,15.50
2022-10-28T04:01:22.559Z,15.50
2022-10-28T04:03:49.739Z,15.50
2022-10-28T04:06:17.086Z,15.50
2022-10-28T04:08:44.145Z,15.50
2022-10-28T04:11:11.360Z,15.50
2022-10-28T04:13:38.514Z,15.50
2022-10-28T04:16:05.482Z,15.60
2022-10-28T04:18:32.282Z,15.50
2022-10-28T04:20:58.984Z,15.60
2022-10-28T04:23:25.774Z,15.60
2022-10-28T04:25:55.588Z,15.50
2022-10-28T04:28:26.697Z,15.50
2022-10-28T04:30:53.463Z,15.50
2022-10-28T04:33:22.228Z,15.50
2022-10-28T04:35:49.595Z,15.50
2022-10-28T04:38:16.562Z,15.50
2022-10-28T04:40:43.416Z,15.40
2022-10-28T04:43:12.028Z,15.50
2022-10-28T04:45:39.462Z,15.50
2022-10-28T04:48:06.314Z,15.50
2022-10-28T04:50:34.463Z,15.40
2022-10-28T04:53:10.502Z,15.40
2022-10-28T04:55:37.617Z,15.40
2022-10-28T04:58:04.660Z,15.40
2022-10-28T05:00:31.685Z,15.40
2022-10-28T05:03:01.133Z,15.40
2022-10-28T05:05:27.879Z,15.40
2022-10-28T05:07:54.751Z,15.40
2022-10-28T05:10:24.849Z,15.40
2022-10-28T05:12:51.581Z,15.30
2022-10-28T05:15:18.402Z,15.40
2022-10-28T05:17:45.696Z,15.30
2022-10-28T05:20:13.146Z,15.30
2022-10-28T05:22:45.310Z,15.30
2022-10-28T05:25:12.343Z,15.30
2022-10-28T05:27:39.100Z,15.30
2022-10-28T05:30:06.329Z,15.30
2022-10-28T05:32:33.117Z,15.20
2022-10-28T05:35:04.346Z,15.20
2022-10-28T05:37:31.320Z,15.20
2022-10-28T05:39:58.250Z,15.20
2022-10-28T05:42:25.529Z,15.10
2022-10-28T05:44:52.472Z,15.10
2022-10-28T05:47:19.231Z,15.10
2022-10-28T05:49:46.067Z,15.10
2022-10-28T05:52:12.928Z,15.00
2022-10-28T05:54:39.662Z,15.00
2022-10-28T05:57:06.557Z,15.00
2022-10-28T05:59:33.270Z,14.90
2022-10-28T06:02:00.137Z,14.90
2022-10-28T06:04:27.040Z,14.80
2022-10-28T06:06:54.919Z,14.80
2022-10-28T06:09:21.723Z,14.70
2022-10-28T06:11:47.071Z,14.70
2022-10-28T06:14:13.884Z,14.70
2022-10-28T06:16:42.352Z,14.70
2022-10-28T06:19:09.105Z,14.70
2022-10-28T06:21:35.924Z,14.70
2022-10-28T06:24:02.715Z,14.70
2022-10-28T06:26:29.551Z,14.60
2022-10-28T06:28:56.324Z,14.60
2022-10-28T06:31:23.276Z,14.60
2022-10-28T06:33:51.129Z,14.60
2022-10-28T06:36:17.998Z,14.60
2022-10-28T06:38:44.718Z,14.60
2022-10-28T06:41:18.287Z,14.60
2022-10-28T06:43:45.466Z,14.50
2022-10-28T06:46:12.451Z,14.50
2022-10-28T06:48:46.973Z,14.50
2022-10-28T06:51:16.119Z,14.50
2022-10-28T06:53:43.176Z,14.40
2022-10-28T06:56:10.335Z,14.50
2022-10-28T06:58:39.146Z,14.40
2022-10-28T07:01:14.471Z,14.40
2022-10-28T07:03:41.601Z,14.40
2022-10-28T07:06:08.427Z,14.40
2022-10-28T07:08:35.207Z,14.40
2022-10-28T07:11:02.589Z,14.40
2022-10-28T07:13:29.556Z,14.40
2022-10-28T07:15:57.450Z,14.50
2022-10-28T07:18:24.662Z,14.50
2022-10-28T07:20:51.652Z,14.50
2022-10-28T07:23:19.017Z,14.60
2022-10-28T07:28:18.673Z,14.70
2022-10-28T07:30:45.845Z,14.80
2022-10-28T07:33:12.600Z,14.80
2022-10-28T07:35:39.579Z,14.90
2022-10-28T07:38:06.417Z,14.90
2022-10-28T07:40:33.337Z,15.00
2022-10-28T07:43:00.353Z,15.00
2022-10-28T07:45:27.100Z,15.00
2022-10-28T07:47:53.901Z,15.10
2022-10-28T07:50:20.633Z,15.10
2022-10-28T07:52:47.345Z,15.20
2022-10-28T07:55:14.530Z,15.20
2022-10-28T07:57:41.336Z,15.20
2022-10-28T08:00:08.313Z,15.20
2022-10-28T08:02:38.403Z,15.20
2022-10-28T08:05:05.983Z,15.30
2022-10-28T08:07:34.910Z,15.30
2022-10-28T08:10:05.053Z,15.30
2022-10-28T08:12:31.885Z,15.30
2022-10-28T08:14:58.616Z,15.40
2022-10-28T08:17:25.367Z,15.30
2022-10-28T08:19:52.069Z,15.40
2022-10-28T08:22:18.968Z,15.40
2022-10-28T08:24:45.895Z,15.50
2022-10-28T08:27:12.672Z,15.50
2022-10-28T08:29:39.431Z,15.50
2022-10-28T08:32:09.477Z,15.50
2022-10-28T08:34:39.298Z,15.50
2022-10-28T08:37:09.363Z,15.60
2022-10-28T08:39:36.223Z,15.60
2022-10-28T08:42:15.418Z,15.60
2022-10-28T08:44:49.399Z,15.70
2022-10-28T08:47:23.804Z,15.70
2022-10-28T08:49:54.589Z,15.70
2022-10-28T08:52:27.470Z,15.80
2022-10-28T08:55:12.086Z,15.80
2022-10-28T08:58:14.520Z,15.90
2022-10-28T09:00:44.532Z,15.90
2022-10-28T09:03:11.350Z,16.00
2022-10-28T09:05:39.639Z,16.00
2022-10-28T09:08:07.141Z,16.00
2022-10-28T09:10:52.200Z,16.10
2022-10-28T09:13:37.745Z,16.10
2022-10-28T09:16:23.336Z,16.10
2022-10-28T09:18:53.199Z,16.10
2022-10-28T09:21:23.093Z,16.20
2022-10-28T09:23:54.457Z,16.20
2022-10-28T09:26:28.845Z,16.30
2022-10-28T09:29:05.073Z,16.30
2022-10-28T09:31:41.171Z,16.30
2022-10-28T09:34:12.389Z,16.30
2022-10-28T09:36:44.937Z,16.40
2022-10-28T09:39:25.380Z,16.40
2022-10-28T09:41:57.193Z,16.50
2022-10-28T09:44:32.443Z,16.50
2022-10-28T09:47:00.630Z,16.60
2022-10-28T09:49:34.826Z,16.60
2022-10-28T09:52:08.124Z,16.60
2022-10-28T09:54:36.466Z,16.70
2022-10-28T09:57:04.237Z,16.70
2022-10-28T09:59:31.157Z,16.80
2022-10-28T10:01:58.369Z,16.80
2022-10-28T10:04:28.052Z,16.80
2022-10-28T10:06:59.943Z,16.90
2022-10-28T10:09:28.086Z,17.00
2022-10-28T10:11:56.388Z,17.00
2022-10-28T10:14:30.788Z,17.10
2022-10-28T10:17:00.401Z,17.10
2022-10-28T10:19:27.459Z,17.20
2022-10-28T10:21:55.371Z,17.20
2022-10-28T10:24:25.240Z,17.30
2022-10-28T10:26:54.326Z,17.30
2022-10-28T10:29:21.569Z,17.30
2022-10-28T10:31:49.032Z,17.40
2022-10-28T10:34:24.188Z,17.40
2022-10-28T10:37:01.582Z,17.50
2022-10-28T10:39:33.953Z,17.50
2022-10-28T10:42:00.735Z,17.60
2022-10-28T10:44:32.583Z,17.60
2022-10-28T10:47:06.626Z,17.60
2022-10-28T10:49:34.950Z,17.70
2022-10-28T10:52:02.843Z,17.70
2022-10-28T10:54:31.933Z,17.80
2022-10-28T10:57:16.367Z,17.80
2022-10-28T10:59:50.462Z,17.90
2022-10-28T11:02:26.269Z,17.90
2022-10-28T11:04:55.376Z,17.90
2022-10-28T11:07:22.663Z,18.00
2022-10-28T11:09:50.226Z,18.00
2022-10-28T11:12:23.276Z,18.10
2022-10-28T11:14:57.761Z,18.10
2022-10-28T11:20:00.064Z,18.20
2022-10-28T11:23:04.908Z,18.20
2022-10-28T11:25:40.647Z,18.20
2022-10-28T11:28:13.922Z,18.20
2022-10-28T11:30:46.682Z,18.30
2022-10-28T11:33:32.214Z,18.30
2022-10-28T11:36:02.079Z,18.40
2022-10-28T11:38:47.319Z,18.40
2022-10-28T11:41:31.411Z,18.40
2022-10-28T11:44:06.377Z,18.50
2022-10-28T11:47:02.461Z,18.50
2022-10-28T11:49:55.212Z,18.60
2022-10-28T11:52:45.131Z,18.60
2022-10-28T11:55:27.777Z,18.60
2022-10-28T11:58:16.324Z,18.60
2022-10-28T12:00:43.363Z,18.60
2022-10-28T12:03:28.529Z,18.70
2022-10-28T12:06:15.263Z,18.70
2022-10-28T12:08:45.207Z,18.70
2022-10-28T12:11:16.496Z,18.80
2022-10-28T12:14:15.933Z,18.80
2022-10-28T12:16:45.819Z,18.90
2022-10-28T12:19:16.288Z,18.90
2022-10-28T12:21:55.157Z,18.90
2022-10-28T12:24:28.312Z,18.90
2022-10-28T12:27:00.184Z,18.90
2022-10-28T12:29:37.398Z,18.90
2022-10-28T12:32:09.214Z,18.90
2022-10-28T12:34:51.675Z,19.00
2022-10-28T12:37:26.702Z,19.00
2022-10-28T12:39:56.644Z,19.00
2022-10-28T12:42:32.519Z,19.00
2022-10-28T12:45:01.884Z,19.00
2022-10-28T12:47:42.972Z,19.00
2022-10-28T12:50:29.744Z,19.00
2022-10-28T12:53:02.520Z,19.00
2022-10-28T12:55:42.114Z,19.10
2022-10-28T12:58:13.164Z,19.10
2022-10-28T13:00:50.614Z,19.10
2022-10-28T13:03:18.851Z,19.20
2022-10-28T13:05:48.881Z,19.20
2022-10-28T13:08:15.751Z,19.20
2022-10-28T13:10:48.319Z,19.20
2022-10-28T13:13:46.657Z,19.20
2022-10-28T13:16:37.028Z,19.30
2022-10-28T13:19:22.919Z,19.30
2022-10-28T13:21:58.345Z,19.30
2022-10-28T13:24:25.460Z,19.30
2022-10-28T13:26:52.579Z,19.40
2022-10-28T13:29:36.512Z,19.40
2022-10-28T13:32:37.503Z,19.40
2022-10-28T13:35:34.965Z,19.40
2022-10-28T13:38:02.579Z,19.40
2022-10-28T13:40:32.760Z,19.40
2022-10-28T13:43:00.499Z,19.40
2022-10-28T13:45:48.384Z,19.40
2022-10-28T13:48:32.130Z,19.40
2022-10-28T13:51:11.239Z,19.40
2022-10-28T13:53:47.223Z,19.40
2022-10-28T13:56:19.991Z,19.40
2022-10-28T13:58:58.131Z,19.40
2022-10-28T14:01:43.919Z,19.40
2022-10-28T14:04:23.064Z,19.40
2022-10-28T14:06:50.462Z,19.40
2022-10-28T14:09:21.861Z,19.30
2022-10-28T14:12:03.266Z,19.40
2022-10-28T14:14:30.163Z,19.30
2022-10-28T14:16:57.542Z,19.40
2022-10-28T14:19:24.824Z,19.30
2022-10-28T14:22:03.238Z,19.30
2022-10-28T14:24:36.638Z,19.30
2022-10-28T14:27:06.610Z,19.30
2022-10-28T14:29:47.618Z,19.30
2022-10-28T14:32:33.034Z,19.20
2022-10-28T14:34:59.903Z,19.20
2022-10-28T14:37:43.511Z,19.20
2022-10-28T14:40:24.617Z,19.20
2022-10-28T14:43:11.746Z,19.20
2022-10-28T14:45:49.954Z,19.20
2022-10-28T14:48:36.418Z,19.20
2022-10-28T14:51:03.615Z,19.10
2022-10-28T14:53:32.369Z,19.20
2022-10-28T14:56:08.046Z,19.20
2022-10-28T14:58:39.635Z,19.10
2022-10-28T15:01:06.424Z,19.10
2022-10-28T15:03:33.604Z,19.10
2022-10-28T15:06:19.436Z,19.10
2022-10-28T15:08:46.232Z,19.10
2022-10-28T15:11:15.651Z,19.10
2022-10-28T15:13:42.464Z,19.00
2022-10-28T15:16:18.804Z,19.00
2022-10-28T15:18:49.826Z,19.00
2022-10-28T15:21:18.732Z,19.00
2022-10-28T15:23:47.458Z,19.00
2022-10-28T15:26:16.183Z,19.00
2022-10-28T15:28:43.114Z,18.90
2022-10-28T15:31:10.122Z,18.90
2022-10-28T15:33:38.144Z,18.90
2022-10-28T15:36:08.072Z,18.90
2022-10-28T15:38:38.205Z,18.80
2022-10-28T15:41:31.199Z,18.80
2022-10-28T15:44:01.896Z,18.70
2022-10-28T15:46:30.766Z,18.70
2022-10-28T15:48:58.582Z,18.70
2022-10-28T15:51:25.686Z,18.70
2022-10-28T15:53:54.289Z,18.70
2022-10-28T15:56:21.113Z,18.70
2022-10-28T15:59:09.052Z,18.70
2022-10-28T16:01:40.181Z,18.60
2022-10-28T16:04:27.448Z,18.60
2022-10-28T16:06:58.093Z,18.60
2022-10-28T16:09:30.337Z,18.50
2022-10-28T16:11:59.270Z,18.50
2022-10-28T16:14:39.860Z,18.50
2022-10-28T16:17:19.133Z,18.50
2022-10-28T16:19:49.719Z,18.40
2022-10-28T16:22:18.366Z,18.40
2022-10-28T16:24:45.843Z,18.40
2022-10-28T16:27:23.005Z,18.40
2022-10-28T16:29:50.249Z,18.30
2022-10-28T16:32:18.061Z,18.30
2022-10-28T16:34:44.930Z,18.30
2022-10-28T16:37:23.677Z,18.30
2022-10-28T16:39:50.556Z,18.30
2022-10-28T16:42:17.878Z,18.30
2022-10-28T16:44:44.978Z,18.20
2022-10-28T16:47:13.414Z,18.20
2022-10-28T16:49:40.802Z,18.20
2022-10-28T16:52:13.492Z,18.20
2022-10-28T16:54:40.212Z,18.20
2022-10-28T16:57:06.963Z,18.10
2022-10-28T16:59:37.127Z,18.10
2022-10-28T17:02:05.204Z,18.10
2022-10-28T17:04:32.069Z,18.10
2022-10-28T17:06:58.954Z,18.00
2022-10-28T17:09:25.818Z,18.00
2022-10-28T17:11:52.660Z,18.00
2022-10-28T17:14:19.843Z,18.00
2022-10-28T17:16:46.648Z,18.00
2022-10-28T17:19:13.802Z,18.00
2022-10-28T17:21:41.652Z,18.00
2022-10-28T17:24:08.585Z,17.90
2022-10-28T17:26:35.533Z,17.90
2022-10-28T17:29:03.427Z,17.90
2022-10-28T17:31:30.189Z,17.90
2022-10-28T17:33:57.237Z,17.90
2022-10-28T17:36:24.722Z,17.90
2022-10-28T17:38:51.665Z,17.90
2022-10-28T17:41:19.328Z,17.90
2022-10-28T17:43:48.282Z,17.80
2022-10-28T17:46:15.136Z,17.80
2022-10-28T17:48:43.295Z,17.80
2022-10-28T17:51:11.384Z,17.80
2022-10-28T17:53:38.258Z,17.80
2022-10-28T17:56:06.321Z,17.80
2022-10-28T17:58:33.333Z,17.80
2022-10-28T18:01:01.025Z,17.80
2022-10-28T18:03:28.698Z,17.80
2022-10-28T18:05:57.012Z,17.80
2022-10-28T18:08:23.865Z,17.80
2022-10-28T18:10:51.380Z,17.80
2022-10-28T18:13:18.222Z,17.80
2022-10-28T18:15:52.859Z,17.80
2022-10-28T18:18:19.673Z,17.80
2022-10-28T18:20:55.548Z,17.80
2022-10-28T18:23:22.934Z,17.80
2022-10-28T18:25:59.743Z,17.70
2022-10-28T18:28:27.178Z,17.80
2022-10-28T18:30:53.910Z,17.70
2022-10-28T18:33:21.076Z,17.70
2022-10-28T18:35:47.916Z,17.70
2022-10-28T18:38:14.707Z,17.70
2022-10-28T18:40:47.872Z,17.70
2022-10-28T18:43:14.903Z,17.70
2022-10-28T18:45:41.983Z,17.70
2022-10-28T18:48:08.867Z,17.70
2022-10-28T18:50:35.834Z,17.70
2022-10-28T18:53:03.220Z,17.70
2022-10-28T18:55:30.212Z,17.60
2022-10-28T18:57:59.451Z,17.60
2022-10-28T19:00:26.186Z,17.60
2022-10-28T19:05:21.071Z,17.60
2022-10-28T19:07:47.860Z,17.60
2022-10-28T19:10:14.844Z,17.60
2022-10-28T19:12:44.997Z,17.60
2022-10-28T19:15:15.841Z,17.60
2022-10-28T19:17:42.584Z,17.60
2022-10-28T19:20:09.740Z,17.60
2022-10-28T19:22:36.503Z,17.60
2022-10-28T19:25:03.674Z,17.60
2022-10-28T19:27:30.395Z,17.60
2022-10-28T19:29:59.921Z,17.60
2022-10-28T19:32:26.818Z,17.50
2022-10-28T19:34:53.552Z,17.50
2022-10-28T19:37:21.093Z,17.50
2022-10-28T19:39:47.907Z,17.50
2022-10-28T19:42:14.909Z,17.50
2022-10-28T19:44:41.765Z,17.50
2022-10-28T19:47:08.569Z,17.50
2022-10-28T19:49:39.306Z,17.50
2022-10-28T19:52:07.536Z,17.50
2022-10-28T19:54:34.388Z,17.50
2022-10-28T19:57:01.206Z,17.60
2022-10-28T19:59:28.071Z,17.60
2022-10-28T20:01:55.092Z,17.60
2022-10-28T20:04:22.061Z,17.60
2022-10-28T20:06:48.913Z,17.60
2022-10-28T20:09:15.653Z,17.70
2022-10-28T20:11:43.304Z,17.70
2022-10-28T20:14:12.378Z,17.70
2022-10-28T20:16:41.960Z,17.70
2022-10-28T20:19:08.958Z,17.70
2022-10-28T20:21:37.252Z,17.70
2022-10-28T20:24:07.454Z,17.70
2022-10-28T20:26:35.576Z,17.80
2022-10-28T20:29:03.127Z,17.80
2022-10-28T20:31:31.185Z,17.80
2022-10-28T20:33:59.844Z,17.80
2022-10-28T20:36:28.249Z,17.80
2022-10-28T20:38:55.525Z,17.80
2022-10-28T20:41:23.452Z,17.80
2022-10-28T20:43:53.935Z,17.80
2022-10-28T20:46:21.417Z,17.90
2022-10-28T20:48:48.707Z,17.90
2022-10-28T20:51:15.506Z,17.90
2022-10-28T20:53:42.308Z,17.90
2022-10-28T20:56:14.593Z,17.90
2022-10-28T20:58:41.426Z,17.80
2022-10-28T21:01:11.705Z,17.80
2022-10-28T21:03:40.906Z,17.80
2022-10-28T21:06:07.966Z,17.80
2022-10-28T21:08:34.961Z,17.80
2022-10-28T21:11:05.860Z,17.80
2022-10-28T21:13:33.018Z,17.80
2022-10-28T21:16:02.979Z,17.80
2022-10-28T21:18:29.699Z,17.80
2022-10-28T21:20:57.613Z,17.80
2022-10-28T21:23:25.127Z,17.70
2022-10-28T21:25:55.605Z,17.70
2022-10-28T21:28:22.738Z,17.70
2022-10-28T21:30:49.862Z,17.70
2022-10-28T21:33:18.872Z,17.70
2022-10-28T21:35:54.025Z,17.70
2022-10-28T21:38:21.071Z,17.70
2022-10-28T21:40:48.157Z,17.70
2022-10-28T21:43:15.747Z,17.60
2022-10-28T21:45:42.487Z,17.70
2022-10-28T21:48:09.302Z,17.60
2022-10-28T21:50:36.050Z,17.60
2022-10-28T21:53:04.043Z,17.60
2022-10-28T21:55:46.144Z,17.70
2022-10-28T21:58:14.520Z,17.60
2022-10-28T22:00:42.067Z,17.60
2022-10-28T22:03:09.791Z,17.60
2022-10-28T22:05:37.258Z,17.60
2022-10-28T22:08:05.101Z,17.60
2022-10-28T22:10:32.413Z,17.60
2022-10-28T22:12:59.448Z,17.60
2022-10-28T22:15:26.790Z,17.60
2022-10-28T22:17:53.958Z,17.50
2022-10-28T22:20:20.969Z,17.50
2022-10-28T22:22:48.154Z,17.50
2022-10-28T22:25:15.884Z,17.40
2022-10-28T22:27:45.124Z,17.40
2022-10-28T22:30:13.474Z,17.40
2022-10-28T22:32:43.379Z,17.50
2022-10-28T22:35:10.904Z,17.40
2022-10-28T22:37:37.783Z,17.40
2022-10-28T22:40:04.830Z,17.40
2022-10-28T22:42:31.695Z,17.40
2022-10-28T22:44:59.789Z,17.40
2022-10-28T22:47:26.640Z,17.30
2022-10-28T22:49:53.489Z,17.30
2022-10-28T22:52:20.392Z,17.40
2022-10-28T22:54:47.300Z,17.40
2022-10-28T22:57:14.093Z,17.40
2022-10-28T22:59:40.862Z,17.40
2022-10-28T23:02:07.675Z,17.40
2022-10-28T23:04:34.593Z,17.30
2022-10-28T23:07:01.440Z,17.30
2022-10-28T23:09:28.242Z,17.30
2022-10-28T23:11:55.050Z,17.30
2022-10-28T23:14:21.751Z,17.30
2022-10-28T23:16:49.470Z,17.30
2022-10-28T23:19:16.364Z,17.30
2022-10-28T23:21:43.176Z,17.30
2022-10-28T23:24:09.988Z,17.20
2022-10-28T23:26:36.917Z,17.20
2022-10-28T23:29:03.710Z,17.20
2022-10-28T23:31:30.463Z,17.10
2022-10-28T23:33:58.597Z,17.00
2022-10-28T23:36:25.422Z,17.00
2022-10-28T23:38:53.530Z,16.90
2022-10-28T23:41:22.785Z,16.90
2022-10-28T23:43:49.669Z,16.90
2022-10-28T23:46:16.914Z,17.00
2022-10-28T23:48:43.730Z,16.90
2022-10-28T23:51:10.548Z,17.00
2022-10-28T23:53:39.658Z,16.90
2022-10-28T23:56:06.846Z,16.90
2022-10-28T23:58:33.570Z,16.90
